Apex, NC (27502)

5:16 AM EDT on May 29, 2015 (GMT -0400)
Surrey Meadows | | Change Station
CLOSE
Current Station
Personal Weather Station
Location: APEX, NC
Elevation: 476 ft
Nearby Weather Stations

Elev 476 ft 35.73 °N, 78.83 °W | Updated 3 minutes ago

Mostly Cloudy
Mostly Cloudy
66.6 °F
Feels Like 66.6 °F
N
0.0
Wind Variable Wind from NE

Today
High -- | Low -- °F
--% Chance of Precip.
Yesterday
High -- | Low -- °F
Precip. -- in
6:01 AM 8:23 PM
Waxing Gibbous, 82% visible
Pressure 30.19 in
Visibility 10.0 miles
Clouds Few 4000 ft
Scattered Clouds 6000 ft
Scattered Clouds 8000 ft
Dew Point 62 °F
Humidity 86%
Rainfall 0.00 in
Snow Depth Not available.
UV 0 out of 12
Pollen 6.70 out of 12
Air Quality Not available.
Flu Activity No Activity
METAR KRDU 290851Z 16003KT 10SM FEW040 SCT060 SCT080 21/18 A3020 RMK AO2 SLP221 T02060183 56007 $

More Conditions Fewer Conditions

Pressure 30.19 in
Visibility 10.0 miles
Clouds Few 4000 ft
Scattered Clouds 6000 ft
Scattered Clouds 8000 ft
Dew Point 62 °F
Humidity 86%
Rainfall 0.00 in
Snow Depth Not available.
UV 0 out of 12
Pollen 6.70 out of 12
Air Quality Not available.
Flu Activity No Activity
METAR KRDU 290851Z 16003KT 10SM FEW040 SCT060 SCT080 21/18 A3020 RMK AO2 SLP221 T02060183 56007 $

More Conditions Fewer Conditions

10-Day Weather Forecast

Almanac

Astronomy

May. 29, 2015 Rise Set
Actual Time
Civil Twilight
Nautical Twilight
Astronomical Twilight
Moon
Length of Visible Light
Length of Day
Tomorrow will be .
, % of the Moon is Illuminated

Today's Extremes

State Highs State Lows

Community

WunderPhotos

Upload Photos

1,825,221 photos uploaded!

WunderBlogs® & News

Nearby

Air Quality

  Air Quality AQ Index Pollutant
Not available.

Snow Depth

Station Depth Elevation

Earthquake Activity

City Distance Mag. Time & Date
Minimum magnitude displayed is 2.5.

Coastal Water Temperatures

Place Temperature

Stations

Nearby Weather Stations

Station Location Temp. Windchill Dew Point Humidity Wind Precip. Elev Updated Type